Time;durP1;ratioP1;P1;durP2;ratioP2;P2;SDS_P1;SDS_P2;PMS_P1;PMS_P2;Temp;Humidity;BMP_temperature;BMP_pressure;BME280_temperature;BME280_humidity;BME280_pressure;Samples;Min_cycle;Max_cycle;Signal;HPM_P1;HPM_P2
2023/04/11 00:00:55;;;;;;;12.27;2.70;;;;;;;;;;5115224;28;20198;-73
2023/04/11 00:03:22;;;;;;;10.40;2.20;;;;;;;;;;5115316;28;20293;-75
2023/04/11 00:05:49;;;;;;;10.47;3.00;;;;;;;;;;5115484;28;20295;-74
2023/04/11 00:08:17;;;;;;;13.40;2.43;;;;;;;;;;5115149;28;20297;-75
2023/04/11 00:10:44;;;;;;;10.67;2.57;;;;;;;;;;5114926;28;20288;-74
2023/04/11 00:13:11;;;;;;;13.90;2.57;;;;;;;;;;5114805;28;20815;-75
2023/04/11 00:15:40;;;;;;;9.30;2.43;;;;;;;;;;5115305;28;20286;-74
2023/04/11 00:18:07;;;;;;;11.73;3.43;;;;;;;;;;5115022;28;20282;-75
2023/04/11 00:20:35;;;;;;;12.00;2.77;;;;;;;;;;5114543;28;20751;-73
2023/04/11 00:23:02;;;;;;;13.97;3.30;;;;;;;;;;5115512;28;20221;-74
2023/04/11 00:25:31;;;;;;;11.87;3.20;;;;;;;;;;5114422;28;20551;-74
2023/04/11 00:27:59;;;;;;;10.67;3.37;;;;;;;;;;5114138;28;20237;-74
2023/04/11 00:30:26;;;;;;;14.30;3.57;;;;;;;;;;5114952;28;20549;-74
2023/04/11 00:32:54;;;;;;;11.80;3.00;;;;;;;;;;5114936;28;20194;-74
2023/04/11 00:35:22;;;;;;;12.90;2.77;;;;;;;;;;5114898;28;20288;-74
2023/04/11 00:37:54;;;;;;;12.23;3.10;;;;;;;;;;5114595;28;20244;-74
2023/04/11 00:40:22;;;;;;;14.93;3.13;;;;;;;;;;5114196;28;20241;-76
2023/04/11 00:42:49;;;;;;;11.93;2.70;;;;;;;;;;5113973;28;20319;-74
2023/04/11 00:45:16;;;;;;;14.97;3.03;;;;;;;;;;5114675;28;20306;-74
2023/04/11 00:47:43;;;;;;;14.57;2.80;;;;;;;;;;5114622;28;20235;-74
2023/04/11 00:50:12;;;;;;;13.63;3.27;;;;;;;;;;5114219;28;20239;-74
2023/04/11 00:52:40;;;;;;;10.37;2.57;;;;;;;;;;5114001;28;20203;-74
2023/04/11 00:55:08;;;;;;;15.03;2.63;;;;;;;;;;5114143;28;20197;-73
2023/04/11 00:57:35;;;;;;;11.00;2.23;;;;;;;;;;5113729;28;20225;-74
2023/04/11 01:00:03;;;;;;;11.70;2.43;;;;;;;;;;5114397;28;20222;-74
2023/04/11 01:02:31;;;;;;;17.90;3.23;;;;;;;;;;5113928;28;20693;-74
2023/04/11 01:04:59;;;;;;;17.00;2.60;;;;;;;;;;5113900;28;20779;-74
2023/04/11 01:07:28;;;;;;;17.07;3.60;;;;;;;;;;5113953;28;20253;-75
2023/04/11 01:09:55;;;;;;;14.43;3.70;;;;;;;;;;5110353;27;20203;-73
2023/04/11 01:12:23;;;;;;;13.77;2.83;;;;;;;;;;5103966;28;20684;-74
2023/04/11 01:14:50;;;;;;;13.67;3.10;;;;;;;;;;5113867;28;20288;-74
2023/04/11 01:17:20;;;;;;;13.33;3.13;;;;;;;;;;5113994;28;20296;-74
2023/04/11 01:19:47;;;;;;;11.73;2.87;;;;;;;;;;5114338;28;20203;-74
2023/04/11 01:22:16;;;;;;;12.57;2.70;;;;;;;;;;5113712;28;20288;-74
2023/04/11 01:24:45;;;;;;;12.70;2.50;;;;;;;;;;5113442;28;20208;-74
2023/04/11 01:27:12;;;;;;;12.97;2.60;;;;;;;;;;5113484;28;20564;-74
2023/04/11 01:29:40;;;;;;;11.27;3.00;;;;;;;;;;5113652;28;20301;-74
2023/04/11 01:32:07;;;;;;;13.30;2.90;;;;;;;;;;5113258;28;20196;-74
2023/04/11 01:34:34;;;;;;;11.13;2.80;;;;;;;;;;5113328;28;20204;-75
2023/04/11 01:37:02;;;;;;;11.37;3.10;;;;;;;;;;5113663;28;20312;-75
2023/04/11 01:39:29;;;;;;;10.57;2.37;;;;;;;;;;5113351;28;20231;-74
2023/04/11 01:41:58;;;;;;;11.77;2.87;;;;;;;;;;5112843;28;20322;-74
2023/04/11 01:44:26;;;;;;;10.47;2.27;;;;;;;;;;5113069;28;20289;-74
2023/04/11 01:46:53;;;;;;;12.53;2.47;;;;;;;;;;5112808;28;20225;-73
2023/04/11 01:49:20;;;;;;;13.80;2.77;;;;;;;;;;5112959;28;20731;-74
2023/04/11 01:51:47;;;;;;;12.13;2.70;;;;;;;;;;5113288;28;20202;-74
2023/04/11 01:54:14;;;;;;;9.87;2.20;;;;;;;;;;5113335;28;20300;-74
2023/04/11 01:56:42;;;;;;;10.37;2.63;;;;;;;;;;5112438;28;20286;-74
2023/04/11 01:59:10;;;;;;;12.87;2.70;;;;;;;;;;5112846;28;20277;-75
2023/04/11 02:01:37;;;;;;;13.23;2.60;;;;;;;;;;5112832;28;20292;-74
2023/04/11 02:04:04;;;;;;;9.37;2.37;;;;;;;;;;5112917;28;20288;-74
2023/04/11 02:06:32;;;;;;;14.30;2.93;;;;;;;;;;5112782;28;20222;-74
2023/04/11 02:08:59;;;;;;;9.27;1.90;;;;;;;;;;5112616;28;20317;-75
2023/04/11 02:11:26;;;;;;;13.30;2.20;;;;;;;;;;5111851;28;20202;-73
2023/04/11 02:13:53;;;;;;;10.00;2.20;;;;;;;;;;5112546;28;20288;-73
2023/04/11 02:16:24;;;;;;;12.97;2.20;;;;;;;;;;5112313;28;20293;-74
2023/04/11 02:18:52;;;;;;;17.40;2.50;;;;;;;;;;5112933;28;20204;-74
2023/04/11 02:21:19;;;;;;;9.73;2.13;;;;;;;;;;5113120;28;20292;-74
2023/04/11 02:23:46;;;;;;;12.97;2.30;;;;;;;;;;5112261;28;20776;-74
2023/04/11 02:26:14;;;;;;;13.57;2.20;;;;;;;;;;5112957;28;20627;-74
2023/04/11 02:28:41;;;;;;;15.23;2.20;;;;;;;;;;5111803;28;20232;-74
2023/04/11 02:31:08;;;;;;;13.00;2.63;;;;;;;;;;5112339;28;20196;-74
2023/04/11 02:33:37;;;;;;;17.27;2.47;;;;;;;;;;5112395;28;20280;-74
2023/04/11 02:36:04;;;;;;;11.73;2.40;;;;;;;;;;5112416;28;20672;-74
2023/04/11 02:38:32;;;;;;;14.43;2.40;;;;;;;;;;5111699;28;20207;-75
2023/04/11 02:40:59;;;;;;;12.33;2.60;;;;;;;;;;5112098;28;20263;-74
2023/04/11 02:43:26;;;;;;;14.37;2.40;;;;;;;;;;5112025;28;20206;-75
2023/04/11 02:45:53;;;;;;;14.87;2.60;;;;;;;;;;5112074;28;20202;-74
2023/04/11 02:48:21;;;;;;;16.63;2.37;;;;;;;;;;5112256;28;20785;-74
2023/04/11 02:50:49;;;;;;;15.27;2.80;;;;;;;;;;5111602;28;20262;-74
2023/04/11 02:53:17;;;;;;;12.30;1.90;;;;;;;;;;5111183;28;20284;-74
2023/04/11 02:55:44;;;;;;;16.07;2.70;;;;;;;;;;5112089;28;20558;-75
2023/04/11 02:58:16;;;;;;;13.37;3.00;;;;;;;;;;5111393;28;20291;-74
2023/04/11 03:00:44;;;;;;;15.57;2.37;;;;;;;;;;5111438;28;20280;-74
2023/04/11 03:03:12;;;;;;;13.83;1.93;;;;;;;;;;5112107;28;20193;-75
2023/04/11 03:05:39;;;;;;;10.67;2.03;;;;;;;;;;5111877;28;20288;-75
2023/04/11 03:08:08;;;;;;;9.77;1.80;;;;;;;;;;5111380;28;20263;-74
2023/04/11 03:10:35;;;;;;;14.80;2.10;;;;;;;;;;5112022;28;20204;-74
2023/04/11 03:13:03;;;;;;;12.87;2.47;;;;;;;;;;5111514;28;20724;-74
2023/04/11 03:15:31;;;;;;;15.83;2.40;;;;;;;;;;5111771;28;20605;-74
2023/04/11 03:17:58;;;;;;;14.40;2.10;;;;;;;;;;5111469;28;20700;-74
2023/04/11 03:20:25;;;;;;;11.53;1.90;;;;;;;;;;5111857;28;20189;-74
2023/04/11 03:22:52;;;;;;;8.63;1.90;;;;;;;;;;5111105;28;20194;-74
2023/04/11 03:25:21;;;;;;;12.67;2.10;;;;;;;;;;5111720;28;20198;-74
2023/04/11 03:27:48;;;;;;;14.67;1.80;;;;;;;;;;5111318;28;20193;-74
2023/04/11 03:30:16;;;;;;;13.03;2.03;;;;;;;;;;5111165;28;20198;-75
2023/04/11 03:32:43;;;;;;;14.30;2.63;;;;;;;;;;5111309;28;20700;-75
2023/04/11 03:35:10;;;;;;;12.60;2.77;;;;;;;;;;5111452;28;20643;-74
2023/04/11 03:37:38;;;;;;;14.93;2.30;;;;;;;;;;5110762;28;20194;-74
2023/04/11 03:40:07;;;;;;;15.37;2.53;;;;;;;;;;5111414;28;20230;-74
2023/04/11 03:42:35;;;;;;;14.00;2.30;;;;;;;;;;5111879;28;20190;-75
2023/04/11 03:45:03;;;;;;;14.67;2.30;;;;;;;;;;5111415;28;20908;-74
2023/04/11 03:47:30;;;;;;;13.40;2.40;;;;;;;;;;5111673;28;20201;-74
2023/04/11 03:49:57;;;;;;;11.23;2.40;;;;;;;;;;5111556;28;20418;-74
2023/04/11 03:52:24;;;;;;;11.73;2.00;;;;;;;;;;5110901;28;20288;-74
2023/04/11 03:54:51;;;;;;;14.00;2.50;;;;;;;;;;5111367;28;20198;-74
2023/04/11 03:57:18;;;;;;;15.33;2.23;;;;;;;;;;5111421;28;20221;-75
2023/04/11 03:59:47;;;;;;;11.57;2.10;;;;;;;;;;5111287;28;20284;-74
2023/04/11 04:02:15;;;;;;;11.87;2.50;;;;;;;;;;5111573;28;20212;-74
2023/04/11 04:04:45;;;;;;;16.90;2.47;;;;;;;;;;5110943;28;20208;-74
2023/04/11 04:07:12;;;;;;;14.67;2.87;;;;;;;;;;5110694;28;20665;-73
2023/04/11 04:09:40;;;;;;;17.10;2.67;;;;;;;;;;5112923;28;20232;-73
2023/04/11 04:12:08;;;;;;;12.43;2.53;;;;;;;;;;5109801;28;20194;-74
2023/04/11 04:14:35;;;;;;;12.70;2.80;;;;;;;;;;5103860;28;20286;-74
2023/04/11 04:17:03;;;;;;;15.43;2.77;;;;;;;;;;5094418;28;20299;-74
2023/04/11 04:19:30;;;;;;;11.83;2.80;;;;;;;;;;5094939;28;20277;-73
2023/04/11 04:21:58;;;;;;;16.93;3.50;;;;;;;;;;5094314;28;20274;-74
2023/04/11 04:24:25;;;;;;;12.77;2.90;;;;;;;;;;5094434;28;20221;-74
2023/04/11 04:26:53;;;;;;;15.10;3.70;;;;;;;;;;5094675;28;20197;-74
2023/04/11 04:29:20;;;;;;;16.60;3.10;;;;;;;;;;5093854;28;20311;-74
2023/04/11 04:31:51;;;;;;;17.47;3.60;;;;;;;;;;5094448;28;20297;-74
2023/04/11 04:34:20;;;;;;;15.60;3.60;;;;;;;;;;5093839;28;20194;-73
2023/04/11 04:36:48;;;;;;;17.57;3.37;;;;;;;;;;5094429;28;20205;-74
2023/04/11 04:39:16;;;;;;;17.70;3.70;;;;;;;;;;5094394;28;20670;-74
2023/04/11 04:41:44;;;;;;;18.00;3.60;;;;;;;;;;5097411;28;20233;-74
2023/04/11 04:44:11;;;;;;;13.87;3.50;;;;;;;;;;5106181;27;20287;-74
2023/04/11 04:46:39;;;;;;;16.57;4.03;;;;;;;;;;5100857;28;20296;-74
2023/04/11 04:49:07;;;;;;;15.67;3.77;;;;;;;;;;5093490;28;20230;-75
2023/04/11 04:51:35;;;;;;;16.83;4.33;;;;;;;;;;5104187;27;20698;-75
2023/04/11 04:54:03;;;;;;;21.30;4.00;;;;;;;;;;5134653;27;20284;-74
2023/04/11 04:56:31;;;;;;;15.10;3.63;;;;;;;;;;5134380;27;20196;-74
2023/04/11 04:58:58;;;;;;;16.73;4.50;;;;;;;;;;5134764;27;20228;-74
2023/04/11 05:01:26;;;;;;;14.93;4.20;;;;;;;;;;5134548;27;20563;-73
2023/04/11 05:03:58;;;;;;;15.80;3.63;;;;;;;;;;5133979;27;20288;-74
2023/04/11 05:06:28;;;;;;;14.63;4.20;;;;;;;;;;5134344;27;20197;-74
2023/04/11 05:08:58;;;;;;;20.87;4.60;;;;;;;;;;5114203;27;20233;-74
2023/04/11 05:11:25;;;;;;;18.37;4.27;;;;;;;;;;5109902;28;20630;-74
2023/04/11 05:13:52;;;;;;;18.30;4.57;;;;;;;;;;5111754;28;20757;-73
2023/04/11 05:16:20;;;;;;;16.80;3.77;;;;;;;;;;5105821;28;20256;-74
2023/04/11 05:18:47;;;;;;;13.40;3.27;;;;;;;;;;5093202;28;20206;-74
2023/04/11 05:21:15;;;;;;;16.73;3.30;;;;;;;;;;5092517;28;20294;-74
2023/04/11 05:23:42;;;;;;;18.23;3.10;;;;;;;;;;5093299;28;20251;-75
2023/04/11 05:26:11;;;;;;;20.17;4.43;;;;;;;;;;5093055;28;20202;-75
2023/04/11 05:28:40;;;;;;;15.80;3.60;;;;;;;;;;5093138;28;20196;-75
2023/04/11 05:31:08;;;;;;;21.13;4.57;;;;;;;;;;5092797;28;20378;-75
2023/04/11 05:33:37;;;;;;;20.70;4.47;;;;;;;;;;5092489;28;20198;-75
2023/04/11 05:36:04;;;;;;;12.50;3.73;;;;;;;;;;5092817;28;20203;-75
2023/04/11 05:38:32;;;;;;;15.67;3.60;;;;;;;;;;5111872;28;20213;-74
2023/04/11 05:40:59;;;;;;;13.70;3.43;;;;;;;;;;5113032;28;20229;-74
2023/04/11 05:43:27;;;;;;;17.70;3.17;;;;;;;;;;5113246;28;20288;-75
2023/04/11 05:45:55;;;;;;;14.77;2.90;;;;;;;;;;5113206;28;20288;-76
2023/04/11 05:48:22;;;;;;;16.43;3.10;;;;;;;;;;5111321;28;20258;-75
2023/04/11 05:50:50;;;;;;;11.13;2.80;;;;;;;;;;5109754;28;20217;-75
2023/04/11 05:53:17;;;;;;;13.90;2.90;;;;;;;;;;5112895;28;20202;-75
2023/04/11 05:55:44;;;;;;;16.57;2.90;;;;;;;;;;5113324;28;20736;-75
2023/04/11 05:58:12;;;;;;;18.43;2.90;;;;;;;;;;5112620;28;20285;-74
2023/04/11 06:00:40;;;;;;;15.77;2.67;;;;;;;;;;5113341;28;20266;-74
2023/04/11 06:03:08;;;;;;;13.90;2.63;;;;;;;;;;5112591;28;20235;-74
2023/04/11 06:05:35;;;;;;;14.73;3.30;;;;;;;;;;5097958;28;20211;-75
2023/04/11 06:08:03;;;;;;;17.83;3.57;;;;;;;;;;5099535;28;20645;-75
2023/04/11 06:10:30;;;;;;;17.37;3.23;;;;;;;;;;5101493;28;20688;-75
2023/04/11 06:12:57;;;;;;;18.00;3.43;;;;;;;;;;5111751;28;20248;-74
2023/04/11 06:15:25;;;;;;;15.47;3.53;;;;;;;;;;5111899;28;20229;-75
2023/04/11 06:17:54;;;;;;;16.57;3.30;;;;;;;;;;5111252;28;20670;-75
2023/04/11 06:20:21;;;;;;;14.20;2.97;;;;;;;;;;5111841;28;20285;-75
2023/04/11 06:22:50;;;;;;;21.70;3.40;;;;;;;;;;5112037;28;20225;-74
2023/04/11 06:25:17;;;;;;;14.17;3.13;;;;;;;;;;5112153;28;20207;-75
2023/04/11 06:27:45;;;;;;;16.10;2.97;;;;;;;;;;5112108;28;20221;-75
2023/04/11 06:30:12;;;;;;;15.50;2.87;;;;;;;;;;5111523;28;20348;-74
2023/04/11 06:32:39;;;;;;;18.20;3.37;;;;;;;;;;5111905;28;20193;-75
2023/04/11 06:35:08;;;;;;;14.70;2.53;;;;;;;;;;5111963;28;20667;-74
2023/04/11 06:37:35;;;;;;;12.23;2.90;;;;;;;;;;5111713;28;20236;-75
2023/04/11 06:40:04;;;;;;;14.97;2.77;;;;;;;;;;5111349;28;20221;-74
2023/04/11 06:42:31;;;;;;;16.33;2.70;;;;;;;;;;5108737;28;20284;-74
2023/04/11 06:44:58;;;;;;;17.80;2.97;;;;;;;;;;5112055;27;20223;-74
2023/04/11 06:47:26;;;;;;;14.73;2.40;;;;;;;;;;5111428;28;20280;-74
2023/04/11 06:49:54;;;;;;;22.83;3.40;;;;;;;;;;5109547;27;20318;-74
2023/04/11 06:52:22;;;;;;;18.80;3.20;;;;;;;;;;5111283;28;20819;-73
2023/04/11 06:54:50;;;;;;;19.20;2.87;;;;;;;;;;5111352;28;20237;-74
2023/04/11 06:57:17;;;;;;;17.03;2.73;;;;;;;;;;5111344;28;20288;-74
2023/04/11 06:59:45;;;;;;;15.73;2.80;;;;;;;;;;5106840;28;20208;-74
2023/04/11 07:02:12;;;;;;;17.47;3.10;;;;;;;;;;5108375;28;20304;-74
2023/04/11 07:04:39;;;;;;;16.93;3.33;;;;;;;;;;5111346;28;20696;-74
2023/04/11 07:07:06;;;;;;;17.37;3.13;;;;;;;;;;5111953;28;20194;-75
2023/04/11 07:09:35;;;;;;;16.53;3.03;;;;;;;;;;5111202;28;20717;-74
2023/04/11 07:12:02;;;;;;;17.50;2.97;;;;;;;;;;5111697;28;20208;-74
2023/04/11 07:14:29;;;;;;;17.83;3.27;;;;;;;;;;5111534;28;20200;-74
2023/04/11 07:16:56;;;;;;;16.77;2.90;;;;;;;;;;5110936;28;20229;-73
2023/04/11 07:19:23;;;;;;;22.10;3.37;;;;;;;;;;5111666;28;20292;-75
2023/04/11 07:21:51;;;;;;;15.60;3.00;;;;;;;;;;5111842;28;20280;-74
2023/04/11 07:24:19;;;;;;;17.33;3.43;;;;;;;;;;5111542;28;20237;-74
2023/04/11 07:26:50;;;;;;;17.73;3.30;;;;;;;;;;5111156;28;20233;-74
2023/04/11 07:29:17;;;;;;;20.33;4.03;;;;;;;;;;5111249;28;20280;-74
2023/04/11 07:31:44;;;;;;;15.80;3.27;;;;;;;;;;5111716;28;20281;-74
2023/04/11 07:34:12;;;;;;;18.03;3.00;;;;;;;;;;5111240;28;20749;-74
2023/04/11 07:36:40;;;;;;;14.63;2.83;;;;;;;;;;5111644;28;20606;-75
2023/04/11 07:39:12;;;;;;;18.50;3.07;;;;;;;;;;5111959;28;20194;-73
2023/04/11 07:41:39;;;;;;;12.00;2.50;;;;;;;;;;5110337;28;20231;-75
2023/04/11 07:44:08;;;;;;;13.47;2.97;;;;;;;;;;5112012;28;20190;-74
2023/04/11 07:46:35;;;;;;;13.10;2.60;;;;;;;;;;5115456;28;20231;-75
2023/04/11 07:49:02;;;;;;;15.27;3.23;;;;;;;;;;5115318;28;20280;-74
2023/04/11 07:51:30;;;;;;;15.30;2.93;;;;;;;;;;5115107;28;20324;-74
2023/04/11 07:53:57;;;;;;;12.67;2.20;;;;;;;;;;5115404;28;20200;-74
2023/04/11 07:56:24;;;;;;;16.53;2.67;;;;;;;;;;5115675;28;20189;-75
2023/04/11 07:58:51;;;;;;;16.10;2.70;;;;;;;;;;5114834;28;20202;-75
2023/04/11 08:01:24;;;;;;;16.73;3.03;;;;;;;;;;5115356;28;20288;-75
2023/04/11 08:03:52;;;;;;;16.40;3.00;;;;;;;;;;5115128;28;20564;-74
2023/04/11 08:06:19;;;;;;;10.87;2.60;;;;;;;;;;5115244;27;20232;-75
2023/04/11 08:08:47;;;;;;;16.50;2.83;;;;;;;;;;5114654;28;20194;-72
2023/04/11 08:11:14;;;;;;;18.60;3.17;;;;;;;;;;5114802;28;20308;-75
2023/04/11 08:13:42;;;;;;;14.17;2.90;;;;;;;;;;5114333;28;20237;-74
2023/04/11 08:16:10;;;;;;;15.97;2.70;;;;;;;;;;5114823;28;20251;-75
2023/04/11 08:18:40;;;;;;;14.77;3.30;;;;;;;;;;5115002;28;20202;-74
2023/04/11 08:21:08;;;;;;;16.03;2.83;;;;;;;;;;5115112;28;20194;-75
2023/04/11 08:23:36;;;;;;;17.93;3.40;;;;;;;;;;5114961;28;20284;-74
2023/04/11 08:26:03;;;;;;;18.33;2.90;;;;;;;;;;5114346;28;20206;-75
2023/04/11 08:28:30;;;;;;;15.48;2.95;;;;;;;;;;5114409;28;20243;-74
2023/04/11 08:31:01;;;;;;;17.00;2.55;;;;;;;;;;5114567;28;20245;-75
2023/04/11 08:33:28;;;;;;;12.73;2.20;;;;;;;;;;5114577;28;20678;-74
2023/04/11 08:35:56;;;;;;;15.85;2.88;;;;;;;;;;5114813;28;20277;-74
2023/04/11 08:38:24;;;;;;;14.30;2.50;;;;;;;;;;5114282;28;20201;-74
2023/04/11 08:40:51;;;;;;;15.73;3.23;;;;;;;;;;5113615;28;20265;-74
2023/04/11 08:43:19;;;;;;;15.43;2.60;;;;;;;;;;5105663;28;20194;-74
2023/04/11 08:45:46;;;;;;;17.80;2.90;;;;;;;;;;5114366;28;20288;-74
2023/04/11 08:48:13;;;;;;;14.30;3.00;;;;;;;;;;5114400;28;20194;-71
2023/04/11 08:50:41;;;;;;;17.90;3.03;;;;;;;;;;5114252;28;20219;-74
2023/04/11 08:53:10;;;;;;;17.63;3.67;;;;;;;;;;5114880;28;20198;-74
2023/04/11 08:55:37;;;;;;;18.33;3.63;;;;;;;;;;5107112;28;20569;-74
2023/04/11 08:58:04;;;;;;;15.67;3.10;;;;;;;;;;5113440;28;20294;-74
2023/04/11 09:00:31;;;;;;;16.33;3.23;;;;;;;;;;5114119;28;20217;-74
2023/04/11 09:02:59;;;;;;;13.63;2.33;;;;;;;;;;5114220;28;20280;-74
2023/04/11 09:05:30;;;;;;;15.63;3.20;;;;;;;;;;5114513;28;20204;-74
2023/04/11 09:07:57;;;;;;;16.50;3.33;;;;;;;;;;5114226;28;20204;-75
2023/04/11 09:10:27;;;;;;;15.87;3.13;;;;;;;;;;5113706;28;20308;-74
2023/04/11 09:12:54;;;;;;;15.63;2.90;;;;;;;;;;5113912;28;20205;-75
2023/04/11 09:15:22;;;;;;;15.63;3.07;;;;;;;;;;5114002;28;20293;-74
2023/04/11 09:17:49;;;;;;;16.10;3.50;;;;;;;;;;5113824;28;20642;-74
2023/04/11 09:20:17;;;;;;;19.20;3.57;;;;;;;;;;5113821;28;20197;-74
2023/04/11 09:22:44;;;;;;;14.50;2.80;;;;;;;;;;5113964;28;20224;-74
2023/04/11 09:25:12;;;;;;;16.47;2.93;;;;;;;;;;5113704;28;20884;-74
2023/04/11 09:27:40;;;;;;;11.63;3.00;;;;;;;;;;5114045;28;20198;-75
2023/04/11 09:30:21;;;;;;;20.40;3.27;;;;;;;;;;5113606;28;20320;-74
2023/04/11 09:32:48;;;;;;;17.47;2.97;;;;;;;;;;5113711;28;20193;-74
2023/04/11 09:35:17;;;;;;;11.67;2.60;;;;;;;;;;5113701;28;20194;-74
2023/04/11 09:37:48;;;;;;;14.43;2.97;;;;;;;;;;5113801;28;20619;-74
2023/04/11 09:40:16;;;;;;;16.53;2.77;;;;;;;;;;5113097;28;20336;-74
2023/04/11 09:42:45;;;;;;;15.13;2.63;;;;;;;;;;5113580;28;20225;-74
2023/04/11 09:45:19;;;;;;;14.47;2.40;;;;;;;;;;5113770;28;20270;-75
2023/04/11 09:47:47;;;;;;;13.20;2.70;;;;;;;;;;5113686;28;20194;-75
2023/04/11 09:50:14;;;;;;;13.27;2.43;;;;;;;;;;5112648;28;20225;-74
2023/04/11 09:52:42;;;;;;;16.70;3.10;;;;;;;;;;5113421;28;20239;-75
2023/04/11 09:55:11;;;;;;;11.40;2.57;;;;;;;;;;5113212;28;20194;-75
2023/04/11 09:57:40;;;;;;;13.13;2.47;;;;;;;;;;5113405;28;20190;-76
2023/04/11 10:00:14;;;;;;;14.83;2.73;;;;;;;;;;5113343;28;20198;-72
2023/04/11 10:02:41;;;;;;;11.97;2.63;;;;;;;;;;5113539;28;20255;-75
2023/04/11 10:05:09;;;;;;;15.70;2.77;;;;;;;;;;5113120;28;20205;-74
2023/04/11 10:07:37;;;;;;;13.43;3.13;;;;;;;;;;5112440;28;20655;-74
2023/04/11 10:10:05;;;;;;;17.47;2.70;;;;;;;;;;5113053;28;20201;-74
2023/04/11 10:12:32;;;;;;;13.63;2.50;;;;;;;;;;5113084;28;20189;-74
2023/04/11 10:15:07;;;;;;;12.90;2.93;;;;;;;;;;5113357;28;20201;-75
2023/04/11 10:17:36;;;;;;;13.33;2.97;;;;;;;;;;5112939;28;20200;-75
2023/04/11 10:20:23;;;;;;;11.63;2.60;;;;;;;;;;5112631;28;20194;-75
2023/04/11 10:23:00;;;;;;;11.33;2.63;;;;;;;;;;5112105;28;20305;-75
2023/04/11 10:25:28;;;;;;;11.47;2.50;;;;;;;;;;5112644;28;20224;-75
2023/04/11 10:27:59;;;;;;;11.40;2.40;;;;;;;;;;5112918;28;20640;-72
2023/04/11 10:30:41;;;;;;;13.73;2.80;;;;;;;;;;5112444;28;20235;-75
2023/04/11 10:33:14;;;;;;;11.93;2.30;;;;;;;;;;5112342;28;20284;-75
2023/04/11 10:35:56;;;;;;;11.87;2.30;;;;;;;;;;5112597;28;20293;-75
2023/04/11 10:38:46;;;;;;;14.03;2.70;;;;;;;;;;5112533;28;20197;-76
2023/04/11 10:41:30;;;;;;;10.90;2.40;;;;;;;;;;5109270;28;20234;-74
2023/04/11 10:44:20;;;;;;;11.90;2.63;;;;;;;;;;5112491;28;20193;-73
2023/04/11 10:46:48;;;;;;;11.73;2.73;;;;;;;;;;5112394;28;20202;-74
2023/04/11 10:49:34;;;;;;;8.30;2.13;;;;;;;;;;5112490;28;20251;-73
2023/04/11 10:52:22;;;;;;;11.23;2.60;;;;;;;;;;5111692;28;20436;-74
2023/04/11 10:54:50;;;;;;;13.03;2.43;;;;;;;;;;5105967;28;20292;-75
2023/04/11 10:57:17;;;;;;;11.33;2.10;;;;;;;;;;5111992;28;20734;-74
2023/04/11 10:59:59;;;;;;;9.83;2.40;;;;;;;;;;5112273;28;20201;-74
2023/04/11 11:02:37;;;;;;;11.47;2.37;;;;;;;;;;5112004;28;20565;-75
2023/04/11 11:05:17;;;;;;;11.60;2.20;;;;;;;;;;5111993;28;20661;-74
2023/04/11 11:07:46;;;;;;;13.30;2.40;;;;;;;;;;5111901;28;20238;-75
2023/04/11 11:10:14;;;;;;;10.77;2.10;;;;;;;;;;5111964;28;20201;-74
2023/04/11 11:12:53;;;;;;;10.17;2.20;;;;;;;;;;5112007;28;20206;-75
2023/04/11 11:15:20;;;;;;;9.97;2.00;;;;;;;;;;5112024;28;20204;-74
2023/04/11 11:17:47;;;;;;;8.83;1.90;;;;;;;;;;5111817;28;20229;-74
2023/04/11 11:20:19;;;;;;;12.90;2.37;;;;;;;;;;5110817;28;20189;-75
2023/04/11 11:23:03;;;;;;;7.70;2.10;;;;;;;;;;5111855;28;20202;-74
2023/04/11 11:25:30;;;;;;;10.93;2.27;;;;;;;;;;5111832;28;20200;-74
2023/04/11 11:28:04;;;;;;;9.23;1.97;;;;;;;;;;5112120;28;20276;-74
2023/04/11 11:30:32;;;;;;;8.10;1.93;;;;;;;;;;5111465;28;20289;-74
2023/04/11 11:32:59;;;;;;;9.27;2.27;;;;;;;;;;5111307;28;20225;-75
2023/04/11 11:35:27;;;;;;;10.53;1.97;;;;;;;;;;5111454;28;20284;-74
2023/04/11 11:37:55;;;;;;;9.90;2.07;;;;;;;;;;5111651;28;20757;-74
2023/04/11 11:40:22;;;;;;;8.73;1.50;;;;;;;;;;5111775;28;20286;-74
2023/04/11 11:42:50;;;;;;;12.40;2.80;;;;;;;;;;5111736;28;20313;-74
2023/04/11 11:45:18;;;;;;;9.57;1.60;;;;;;;;;;5111623;28;20233;-75
2023/04/11 11:47:46;;;;;;;8.70;2.17;;;;;;;;;;5112064;28;20221;-74
2023/04/11 11:50:24;;;;;;;8.33;2.13;;;;;;;;;;5110946;28;20673;-74
2023/04/11 11:52:53;;;;;;;9.43;2.30;;;;;;;;;;5111428;28;20197;-75
2023/04/11 11:55:35;;;;;;;9.87;2.17;;;;;;;;;;5111550;28;20233;-74
2023/04/11 11:58:03;;;;;;;6.73;1.80;;;;;;;;;;5111433;28;20788;-74
2023/04/11 12:00:31;;;;;;;9.67;1.87;;;;;;;;;;5111405;28;20711;-75
2023/04/11 12:02:59;;;;;;;6.33;1.80;;;;;;;;;;5111465;28;20225;-74
2023/04/11 12:05:28;;;;;;;11.60;2.23;;;;;;;;;;5111218;28;20292;-74
2023/04/11 12:07:58;;;;;;;8.93;1.80;;;;;;;;;;5111396;28;20251;-73
2023/04/11 12:10:27;;;;;;;9.10;2.80;;;;;;;;;;5111520;28;20201;-74
2023/04/11 12:12:54;;;;;;;11.07;2.50;;;;;;;;;;5111236;28;20681;-73
2023/04/11 12:15:22;;;;;;;9.63;2.90;;;;;;;;;;5111564;28;20198;-74
2023/04/11 12:17:50;;;;;;;9.47;3.80;;;;;;;;;;5111374;28;20202;-75
2023/04/11 12:20:17;;;;;;;9.43;2.90;;;;;;;;;;5111509;28;20201;-74
2023/04/11 12:22:44;;;;;;;7.57;3.03;;;;;;;;;;5111392;28;20289;-74
2023/04/11 12:25:13;;;;;;;9.87;3.07;;;;;;;;;;5111358;28;20198;-73
2023/04/11 12:27:41;;;;;;;11.60;2.77;;;;;;;;;;5111910;28;20217;-73
2023/04/11 12:30:08;;;;;;;7.83;2.50;;;;;;;;;;5112336;28;20300;-74
2023/04/11 12:32:36;;;;;;;10.93;2.60;;;;;;;;;;5115133;28;20328;-74
2023/04/11 12:35:04;;;;;;;10.97;2.90;;;;;;;;;;5114726;28;20213;-74
2023/04/11 12:37:31;;;;;;;9.87;2.97;;;;;;;;;;5114783;28;20196;-74
2023/04/11 12:39:58;;;;;;;10.70;3.00;;;;;;;;;;5114619;28;20229;-73
2023/04/11 12:42:27;;;;;;;10.90;2.70;;;;;;;;;;5114982;28;20279;-74
2023/04/11 12:44:54;;;;;;;14.77;2.70;;;;;;;;;;5114739;28;20285;-74
2023/04/11 12:47:21;;;;;;;8.93;2.80;;;;;;;;;;5114208;28;20638;-74
2023/04/11 12:49:48;;;;;;;10.93;3.10;;;;;;;;;;5114519;28;20232;-75
2023/04/11 12:52:16;;;;;;;14.37;3.30;;;;;;;;;;5114954;28;20312;-74
2023/04/11 12:54:43;;;;;;;12.03;3.00;;;;;;;;;;5114505;28;20745;-74
2023/04/11 12:57:11;;;;;;;11.50;3.23;;;;;;;;;;5114292;28;20741;-74
2023/04/11 12:59:39;;;;;;;10.43;2.23;;;;;;;;;;5114290;28;20289;-73
2023/04/11 13:02:07;;;;;;;6.93;2.53;;;;;;;;;;5113931;28;20259;-74
2023/04/11 13:04:34;;;;;;;7.37;2.10;;;;;;;;;;5114100;28;20201;-73
2023/04/11 13:07:02;;;;;;;11.73;2.53;;;;;;;;;;5114089;28;20613;-74
2023/04/11 13:09:30;;;;;;;9.37;2.33;;;;;;;;;;5114527;28;20205;-74
2023/04/11 13:11:57;;;;;;;10.63;2.37;;;;;;;;;;5114004;28;20621;-74
2023/04/11 13:14:25;;;;;;;9.60;3.17;;;;;;;;;;5113992;28;20753;-74
2023/04/11 13:16:53;;;;;;;11.93;2.73;;;;;;;;;;5113535;28;20277;-73
2023/04/11 13:19:21;;;;;;;11.93;2.63;;;;;;;;;;5113877;28;20194;-74
2023/04/11 13:21:48;;;;;;;12.30;2.70;;;;;;;;;;5113933;28;20305;-74
2023/04/11 13:24:16;;;;;;;11.70;2.47;;;;;;;;;;5114263;28;20285;-74
2023/04/11 13:26:43;;;;;;;10.03;2.30;;;;;;;;;;5113684;28;20289;-74
2023/04/11 13:29:11;;;;;;;11.83;2.13;;;;;;;;;;5114025;28;20200;-74
2023/04/11 13:31:38;;;;;;;13.33;2.60;;;;;;;;;;5113584;28;20225;-75
2023/04/11 13:34:06;;;;;;;9.20;2.07;;;;;;;;;;5113910;28;20225;-74
2023/04/11 13:36:34;;;;;;;8.23;2.07;;;;;;;;;;5113372;28;20202;-74
2023/04/11 13:39:01;;;;;;;8.27;1.80;;;;;;;;;;5113765;28;20189;-73
2023/04/11 13:41:28;;;;;;;10.63;2.27;;;;;;;;;;5112512;28;20280;-73
2023/04/11 13:43:55;;;;;;;8.20;2.07;;;;;;;;;;5113659;28;20300;-74
2023/04/11 13:46:23;;;;;;;6.20;1.87;;;;;;;;;;5113174;28;20236;-74
2023/04/11 13:48:50;;;;;;;10.43;1.73;;;;;;;;;;5113306;28;20202;-74
2023/04/11 13:51:19;;;;;;;9.63;2.10;;;;;;;;;;5113234;28;20688;-73
2023/04/11 13:53:46;;;;;;;7.97;1.90;;;;;;;;;;5113564;28;20189;-73
2023/04/11 13:56:13;;;;;;;9.47;2.03;;;;;;;;;;5113059;28;20237;-74
2023/04/11 13:58:41;;;;;;;8.90;2.03;;;;;;;;;;5112965;28;20201;-74
2023/04/11 14:01:09;;;;;;;10.57;1.90;;;;;;;;;;5112614;28;20200;-75
2023/04/11 14:03:36;;;;;;;7.87;1.53;;;;;;;;;;5113692;28;20284;-74
2023/04/11 14:06:03;;;;;;;8.53;1.60;;;;;;;;;;5113173;28;20227;-74
2023/04/11 14:08:32;;;;;;;10.60;2.03;;;;;;;;;;5112693;28;20588;-74
2023/04/11 14:11:00;;;;;;;6.47;1.40;;;;;;;;;;5113006;28;20200;-74
2023/04/11 14:13:27;;;;;;;8.47;1.80;;;;;;;;;;5113143;28;20237;-74
2023/04/11 14:15:57;;;;;;;8.27;1.77;;;;;;;;;;5112410;28;20293;-74
2023/04/11 14:18:25;;;;;;;7.73;1.60;;;;;;;;;;5112578;28;20667;-75
2023/04/11 14:20:52;;;;;;;7.27;1.73;;;;;;;;;;5112891;28;20200;-73
2023/04/11 14:23:19;;;;;;;8.27;1.97;;;;;;;;;;5113093;28;20229;-75
2023/04/11 14:25:47;;;;;;;8.30;1.50;;;;;;;;;;5112341;28;20284;-72
2023/04/11 14:28:15;;;;;;;6.93;1.80;;;;;;;;;;5111893;28;20571;-77
2023/04/11 14:30:42;;;;;;;6.37;1.70;;;;;;;;;;5111871;28;20194;-75
2023/04/11 14:33:09;;;;;;;6.60;1.63;;;;;;;;;;5112315;28;20260;-73
2023/04/11 14:35:36;;;;;;;10.13;1.53;;;;;;;;;;5112333;28;20625;-76
2023/04/11 14:38:03;;;;;;;7.50;1.73;;;;;;;;;;5112295;28;20764;-75
2023/04/11 14:40:31;;;;;;;6.33;1.30;;;;;;;;;;5112330;28;20249;-75